createdAt,value
2018-08-11T00:00:50.487Z,0.00
2018-08-11T00:01:50.469Z,0.00
2018-08-11T00:02:50.801Z,0.00
2018-08-11T00:03:50.586Z,0.00
2018-08-11T00:04:50.563Z,0.00
2018-08-11T00:05:50.643Z,0.00
2018-08-11T00:06:50.681Z,0.00
2018-08-11T00:07:50.654Z,0.00
2018-08-11T00:08:50.761Z,0.00
2018-08-11T00:09:51.023Z,0.00
2018-08-11T00:10:50.760Z,0.00
2018-08-11T00:11:50.783Z,0.00
2018-08-11T00:12:50.871Z,0.00
2018-08-11T00:13:50.862Z,0.00
2018-08-11T00:14:50.929Z,0.00
2018-08-11T00:15:51.217Z,0.00
2018-08-11T00:16:50.959Z,0.00
2018-08-11T00:17:50.989Z,0.00
2018-08-11T00:18:51.009Z,0.00
2018-08-11T00:19:51.106Z,0.00
2018-08-11T00:20:51.078Z,0.00
2018-08-11T00:21:51.461Z,0.00
2018-08-11T00:22:51.205Z,0.00
2018-08-11T00:23:51.171Z,0.00
2018-08-11T00:24:51.255Z,0.00
2018-08-11T00:25:51.287Z,0.00
2018-08-11T00:26:51.315Z,0.00
2018-08-11T00:27:51.611Z,0.00
2018-08-11T00:28:51.384Z,0.00
2018-08-11T00:29:51.363Z,0.00
2018-08-11T00:30:51.443Z,0.00
2018-08-11T00:31:51.441Z,0.00
2018-08-11T00:32:51.518Z,0.00
2018-08-11T00:33:51.490Z,0.00
2018-08-11T00:34:51.827Z,0.00
2018-08-11T00:35:51.614Z,0.00
2018-08-11T00:36:51.665Z,0.00
2018-08-11T00:37:51.619Z,0.00
2018-08-11T00:38:51.651Z,0.00
2018-08-11T00:39:51.685Z,0.00
2018-08-11T00:40:51.718Z,0.00
2018-08-11T00:41:52.102Z,0.00
2018-08-11T00:42:51.778Z,0.00
2018-08-11T00:43:51.817Z,0.00
2018-08-11T00:44:51.910Z,0.00
2018-08-11T00:45:51.932Z,0.00
2018-08-11T00:46:51.969Z,0.00
2018-08-11T00:47:51.950Z,0.00
2018-08-11T00:48:52.275Z,0.00
2018-08-11T00:49:52.065Z,0.00
2018-08-11T00:50:52.154Z,0.00
2018-08-11T00:51:52.137Z,0.00
2018-08-11T00:52:52.172Z,0.00
2018-08-11T00:53:52.195Z,0.00
2018-08-11T00:54:52.171Z,0.00
2018-08-11T00:55:52.501Z,0.00
2018-08-11T00:56:52.239Z,0.00
2018-08-11T00:57:52.322Z,0.00
2018-08-11T00:58:52.303Z,0.00
2018-08-11T00:59:52.335Z,0.00
2018-08-11T01:00:52.422Z,0.00
2018-08-11T01:01:52.445Z,0.00
2018-08-11T01:02:52.486Z,0.00
2018-08-11T01:03:52.462Z,0.00
2018-08-11T01:04:52.545Z,0.00
2018-08-11T01:05:52.521Z,0.00
2018-08-11T01:06:52.552Z,0.00
2018-08-11T01:07:52.641Z,0.00
2018-08-11T01:08:52.926Z,0.00
2018-08-11T01:09:52.650Z,0.00
2018-08-11T01:10:52.788Z,0.00
2018-08-11T01:11:52.710Z,0.00
2018-08-11T01:12:52.794Z,0.00
2018-08-11T01:13:52.823Z,0.00
2018-08-11T01:14:52.803Z,0.00
2018-08-11T01:15:53.137Z,0.00
2018-08-11T01:16:52.920Z,0.00
2018-08-11T01:17:52.898Z,0.00
2018-08-11T01:18:52.980Z,0.00
2018-08-11T01:19:52.962Z,0.00
2018-08-11T01:20:52.998Z,0.00
2018-08-11T01:21:53.026Z,0.00
2018-08-11T01:22:53.474Z,0.00
2018-08-11T01:23:53.144Z,0.00
2018-08-11T01:24:53.184Z,0.00
2018-08-11T01:25:53.162Z,0.00
2018-08-11T01:26:53.185Z,0.00
2018-08-11T01:27:53.224Z,0.00
2018-08-11T01:28:53.355Z,0.00
2018-08-11T01:29:53.337Z,0.00
2018-08-11T01:30:53.312Z,0.00
2018-08-11T01:31:53.394Z,0.00
2018-08-11T01:32:53.384Z,0.00
2018-08-11T01:33:53.413Z,0.00
2018-08-11T01:34:53.464Z,0.00
2018-08-11T01:35:53.774Z,0.00
2018-08-11T01:36:53.553Z,0.00
2018-08-11T01:37:53.589Z,0.00
2018-08-11T01:38:53.569Z,0.00
2018-08-11T01:39:53.595Z,0.00
2018-08-11T01:40:53.627Z,0.00
2018-08-11T01:41:54.015Z,0.00
2018-08-11T01:42:53.692Z,0.00
2018-08-11T01:43:53.730Z,0.00
2018-08-11T01:44:53.809Z,0.00
2018-08-11T01:45:53.805Z,0.00
2018-08-11T01:46:53.873Z,0.00
2018-08-11T01:47:54.158Z,0.00
2018-08-11T01:48:53.934Z,0.00
2018-08-11T01:49:53.920Z,0.00
2018-08-11T01:50:53.951Z,0.00
2018-08-11T01:51:54.034Z,0.00
2018-08-11T01:52:54.068Z,0.00
2018-08-11T01:53:54.043Z,0.00
2018-08-11T01:54:54.375Z,0.00
2018-08-11T01:55:54.114Z,0.00
2018-08-11T01:56:54.192Z,0.00
2018-08-11T01:57:54.227Z,0.00
2018-08-11T01:58:54.208Z,0.00
2018-08-11T01:59:54.239Z,0.00
2018-08-11T02:00:54.316Z,0.00
2018-08-11T02:01:54.607Z,0.00
2018-08-11T02:02:54.386Z,0.00
2018-08-11T02:03:54.369Z,0.00
2018-08-11T02:04:54.400Z,0.00
2018-08-11T02:05:54.427Z,0.00
2018-08-11T02:06:54.470Z,0.00
2018-08-11T02:07:54.553Z,0.00
2018-08-11T02:08:54.579Z,0.00
2018-08-11T02:09:54.565Z,0.00
2018-08-11T02:10:54.593Z,0.00
2018-08-11T02:11:54.626Z,0.00
2018-08-11T02:12:54.653Z,0.00
2018-08-11T02:13:54.755Z,0.00
2018-08-11T02:14:55.023Z,0.00
2018-08-11T02:15:54.806Z,0.00
2018-08-11T02:16:54.839Z,0.00
2018-08-11T02:17:54.867Z,0.00
2018-08-11T02:18:54.844Z,0.00
2018-08-11T02:19:54.904Z,0.00
2018-08-11T02:20:54.925Z,0.00
2018-08-11T02:21:54.999Z,0.00
2018-08-11T02:22:55.040Z,0.00
2018-08-11T02:23:55.061Z,0.00
2018-08-11T02:24:55.094Z,0.00
2018-08-11T02:25:55.123Z,0.00
2018-08-11T02:26:55.101Z,0.00
2018-08-11T02:27:55.433Z,0.00
2018-08-11T02:28:55.224Z,0.00
2018-08-11T02:29:55.213Z,0.00
2018-08-11T02:30:55.287Z,0.00
2018-08-11T02:31:55.263Z,0.00
2018-08-11T02:32:55.313Z,0.00
2018-08-11T02:33:55.637Z,0.00
2018-08-11T02:34:55.358Z,0.00
2018-08-11T02:35:55.393Z,0.00
2018-08-11T02:36:55.484Z,0.00
2018-08-11T02:37:55.507Z,0.00
2018-08-11T02:38:55.525Z,0.00
2018-08-11T02:39:55.519Z,0.00
2018-08-11T02:40:55.610Z,0.00
2018-08-11T02:41:55.591Z,0.00
2018-08-11T02:42:55.665Z,0.00
2018-08-11T02:43:55.648Z,0.00
2018-08-11T02:44:55.730Z,0.00
2018-08-11T02:45:55.718Z,0.00
2018-08-11T02:46:55.746Z,0.00
2018-08-11T02:47:55.827Z,0.00
2018-08-11T02:48:55.868Z,0.00
2018-08-11T02:49:55.846Z,0.00
2018-08-11T02:50:55.880Z,0.00
2018-08-11T02:51:56.214Z,0.00
2018-08-11T02:52:55.993Z,0.00
2018-08-11T02:53:56.027Z,0.00
2018-08-11T02:54:56.007Z,0.00
2018-08-11T02:55:56.040Z,0.00
2018-08-11T02:56:56.137Z,0.00
2018-08-11T02:57:56.107Z,0.00
2018-08-11T02:58:56.486Z,0.00
2018-08-11T02:59:56.167Z,0.00
2018-08-11T03:00:56.202Z,0.00
2018-08-11T03:01:56.232Z,0.00
2018-08-11T03:02:56.278Z,0.00
2018-08-11T03:03:56.359Z,0.00
2018-08-11T03:04:56.390Z,0.00
2018-08-11T03:06:56.695Z,0.00
2018-08-11T03:07:56.421Z,0.00
2018-08-11T03:08:56.511Z,0.00
2018-08-11T03:09:56.541Z,0.00
2018-08-11T03:10:56.527Z,0.00
2018-08-11T03:11:56.565Z,0.00
2018-08-11T03:12:56.646Z,0.00
2018-08-11T03:13:56.922Z,0.00
2018-08-11T03:14:56.702Z,0.00
2018-08-11T03:15:56.686Z,0.00
2018-08-11T03:16:56.713Z,0.00
2018-08-11T03:17:56.798Z,0.00
2018-08-11T03:18:56.827Z,0.00
2018-08-11T03:19:56.867Z,0.00
2018-08-11T03:20:57.158Z,0.00
2018-08-11T03:21:56.928Z,0.00
2018-08-11T03:22:56.909Z,0.00
2018-08-11T03:23:56.949Z,0.00
2018-08-11T03:24:57.021Z,0.00
2018-08-11T03:25:57.010Z,0.00
2018-08-11T03:26:57.094Z,0.00
2018-08-11T03:27:57.368Z,0.00
2018-08-11T03:28:57.155Z,0.00
2018-08-11T03:29:57.183Z,0.00
2018-08-11T03:30:57.167Z,0.00
2018-08-11T03:31:57.196Z,0.00
2018-08-11T03:32:57.283Z,0.00
2018-08-11T03:33:57.268Z,0.00
2018-08-11T03:34:57.594Z,0.00
2018-08-11T03:35:57.332Z,0.00
2018-08-11T03:36:57.414Z,0.00
2018-08-11T03:37:57.442Z,0.00
2018-08-11T03:38:57.430Z,0.00
2018-08-11T03:39:57.459Z,0.00
2018-08-11T03:40:57.543Z,0.00
2018-08-11T03:41:57.819Z,0.00
2018-08-11T03:42:57.611Z,0.00
2018-08-11T03:43:57.586Z,0.00
2018-08-11T03:44:57.669Z,0.00
2018-08-11T03:45:57.711Z,0.00
2018-08-11T03:46:57.686Z,0.00
2018-08-11T03:47:57.777Z,0.00
2018-08-11T03:48:58.050Z,0.00
2018-08-11T03:49:57.778Z,0.00
2018-08-11T03:50:57.811Z,0.00
2018-08-11T03:51:57.840Z,0.00
2018-08-11T03:52:57.928Z,0.00
2018-08-11T03:53:57.956Z,0.00
2018-08-11T03:54:57.959Z,0.00
2018-08-11T03:55:58.284Z,0.00
2018-08-11T03:56:58.011Z,0.00
2018-08-11T03:57:58.092Z,0.00
2018-08-11T03:58:58.074Z,0.00
2018-08-11T03:59:58.099Z,0.00
2018-08-11T04:00:58.188Z,0.00
2018-08-11T04:01:58.216Z,0.00
2018-08-11T04:02:58.499Z,0.00
2018-08-11T04:03:58.238Z,0.00
2018-08-11T04:04:58.314Z,0.00
2018-08-11T04:05:58.306Z,0.00
2018-08-11T04:06:58.378Z,0.00
2018-08-11T04:07:58.355Z,0.00
2018-08-11T04:08:58.443Z,0.00
2018-08-11T04:09:58.727Z,0.00
2018-08-11T04:10:58.503Z,0.00
2018-08-11T04:11:58.539Z,0.00
2018-08-11T04:12:58.571Z,0.00
2018-08-11T04:13:58.553Z,0.00
2018-08-11T04:14:58.582Z,0.00
2018-08-11T04:15:58.623Z,0.00
2018-08-11T04:16:58.703Z,0.00
2018-08-11T04:17:58.731Z,0.00
2018-08-11T04:18:58.710Z,0.00
2018-08-11T04:19:58.744Z,0.00
2018-08-11T04:20:58.825Z,0.00
2018-08-11T04:21:59.112Z,0.00
2018-08-11T04:22:58.843Z,0.00
2018-08-11T04:23:58.881Z,0.00
2018-08-11T04:24:58.968Z,0.00
2018-08-11T04:25:58.990Z,0.00
2018-08-11T04:26:58.970Z,0.00
2018-08-11T04:27:58.998Z,0.00
2018-08-11T04:28:59.088Z,5.63
2018-08-11T04:29:59.066Z,5.63
2018-08-11T04:30:59.171Z,5.63
2018-08-11T04:31:59.127Z,5.63
2018-08-11T04:32:59.167Z,5.63
2018-08-11T04:33:59.500Z,5.63
2018-08-11T04:34:59.229Z,5.63
2018-08-11T04:35:59.261Z,5.63
2018-08-11T04:36:59.715Z,5.63
2018-08-11T04:37:59.385Z,5.63
2018-08-11T04:38:59.353Z,5.63
2018-08-11T04:39:59.388Z,5.63
2018-08-11T04:40:59.720Z,11.25
2018-08-11T04:41:59.501Z,11.25
2018-08-11T04:42:59.533Z,11.25
2018-08-11T04:43:59.526Z,11.25
2018-08-11T04:44:59.603Z,11.25
2018-08-11T04:45:59.581Z,11.25
2018-08-11T04:46:59.637Z,11.25
2018-08-11T04:48:00.002Z,11.25
2018-08-11T04:48:59.730Z,11.25
2018-08-11T04:49:59.711Z,11.25
2018-08-11T04:50:59.747Z,16.88
2018-08-11T04:51:59.781Z,16.88
2018-08-11T04:52:59.865Z,11.25
2018-08-11T04:53:59.890Z,11.25
2018-08-11T04:55:00.193Z,11.25
2018-08-11T04:55:59.920Z,11.25
2018-08-11T04:56:59.983Z,11.25
2018-08-11T04:57:59.971Z,11.25
2018-08-11T04:59:00.054Z,16.88
2018-08-11T05:00:00.033Z,16.88
2018-08-11T05:01:00.123Z,16.88
2018-08-11T05:02:00.398Z,16.88
2018-08-11T05:03:00.133Z,16.88
2018-08-11T05:04:00.212Z,16.88
2018-08-11T05:05:00.289Z,22.50
2018-08-11T05:06:00.232Z,22.50
2018-08-11T05:07:00.257Z,22.50
2018-08-11T05:08:00.339Z,22.50
2018-08-11T05:09:00.675Z,22.50
2018-08-11T05:10:00.405Z,22.50
2018-08-11T05:11:00.384Z,22.50
2018-08-11T05:12:00.423Z,28.13
2018-08-11T05:13:00.499Z,28.13
2018-08-11T05:14:00.481Z,28.13
2018-08-11T05:15:00.584Z,28.13
2018-08-11T05:16:00.851Z,28.13
2018-08-11T05:17:00.627Z,28.13
2018-08-11T05:18:00.610Z,28.13
2018-08-11T05:19:00.654Z,28.13
2018-08-11T05:20:00.812Z,28.13
2018-08-11T05:21:00.706Z,28.13
2018-08-11T05:22:00.791Z,28.13
2018-08-11T05:23:01.077Z,28.13
2018-08-11T05:24:00.812Z,28.13
2018-08-11T05:25:00.888Z,28.13
2018-08-11T05:26:00.923Z,33.75
2018-08-11T05:27:00.906Z,33.75
2018-08-11T05:28:00.940Z,33.75
2018-08-11T05:29:01.023Z,33.75
2018-08-11T05:30:01.305Z,33.75
2018-08-11T05:31:01.081Z,33.75
2018-08-11T05:32:01.068Z,33.75
2018-08-11T05:33:01.153Z,39.38
2018-08-11T05:34:01.136Z,39.38
2018-08-11T05:35:01.166Z,33.75
2018-08-11T05:36:01.498Z,39.38
2018-08-11T05:37:01.283Z,39.38
2018-08-11T05:38:01.319Z,39.38
2018-08-11T05:39:01.294Z,45.00
2018-08-11T05:40:01.329Z,39.38
2018-08-11T05:41:01.408Z,39.38
2018-08-11T05:42:01.692Z,39.38
2018-08-11T05:43:01.422Z,39.38
2018-08-11T05:44:01.472Z,39.38
2018-08-11T05:45:01.534Z,39.38
2018-08-11T05:46:01.521Z,39.38
2018-08-11T05:47:01.612Z,39.38
2018-08-11T05:48:01.887Z,45.00
2018-08-11T05:49:01.672Z,39.38
2018-08-11T05:50:01.650Z,39.38
2018-08-11T05:51:01.677Z,39.38
2018-08-11T05:52:01.766Z,39.38
2018-08-11T05:53:01.742Z,39.38
2018-08-11T05:54:01.934Z,45.00
2018-08-11T05:55:02.118Z,45.00
2018-08-11T05:56:01.859Z,50.63
2018-08-11T05:57:01.878Z,45.00
2018-08-11T05:58:01.920Z,45.00
2018-08-11T05:59:01.993Z,45.00
2018-08-11T06:00:02.027Z,45.00
2018-08-11T06:01:02.059Z,45.00
2018-08-11T06:02:02.356Z,45.00
2018-08-11T06:03:02.074Z,45.00
2018-08-11T06:04:02.202Z,39.38
2018-08-11T06:05:02.135Z,39.38
2018-08-11T06:06:02.163Z,33.75
2018-08-11T06:07:02.254Z,39.38
2018-08-11T06:08:02.288Z,33.75
2018-08-11T06:09:02.568Z,39.38
2018-08-11T06:10:02.351Z,33.75
2018-08-11T06:11:02.337Z,39.38
2018-08-11T06:12:02.408Z,39.38
2018-08-11T06:13:02.447Z,39.38
2018-08-11T06:14:02.430Z,39.38
2018-08-11T06:15:02.514Z,45.00
2018-08-11T06:16:02.801Z,45.00
2018-08-11T06:17:02.577Z,45.00
2018-08-11T06:18:02.565Z,50.63
2018-08-11T06:19:02.592Z,50.63
2018-08-11T06:20:02.672Z,50.63
2018-08-11T06:21:02.719Z,50.63
2018-08-11T06:22:02.741Z,56.25
2018-08-11T06:23:03.030Z,56.25
2018-08-11T06:24:02.753Z,61.88
2018-08-11T06:25:02.839Z,61.88
2018-08-11T06:26:02.867Z,61.88
2018-08-11T06:27:02.854Z,56.25
2018-08-11T06:28:02.942Z,50.63
2018-08-11T06:29:02.962Z,50.63
2018-08-11T06:30:03.253Z,50.63
2018-08-11T06:31:02.977Z,50.63
2018-08-11T06:32:03.057Z,50.63
2018-08-11T06:33:03.111Z,50.63
2018-08-11T06:34:03.132Z,50.63
2018-08-11T06:35:03.160Z,56.25
2018-08-11T06:36:03.139Z,56.25
2018-08-11T06:37:03.228Z,61.88
2018-08-11T06:38:03.222Z,61.88
2018-08-11T06:39:03.293Z,56.25
2018-08-11T06:40:03.327Z,61.88
2018-08-11T06:41:03.487Z,61.88
2018-08-11T06:42:03.356Z,56.25
2018-08-11T06:43:03.679Z,50.63
2018-08-11T06:44:03.468Z,50.63
2018-08-11T06:45:03.439Z,56.25
2018-08-11T06:46:03.485Z,56.25
2018-08-11T06:47:03.592Z,56.25
2018-08-11T06:48:03.545Z,56.25
2018-08-11T06:49:03.618Z,50.63
2018-08-11T06:50:03.603Z,61.88
2018-08-11T06:51:03.839Z,61.88
2018-08-11T06:52:03.892Z,67.50
2018-08-11T06:53:04.470Z,61.88
2018-08-11T06:54:04.135Z,61.88
2018-08-11T06:55:04.584Z,61.88
2018-08-11T06:56:04.084Z,56.25
2018-08-11T06:57:03.875Z,61.88
2018-08-11T06:58:03.917Z,61.88
2018-08-11T06:59:03.901Z,73.13
2018-08-11T07:00:03.925Z,73.13
2018-08-11T07:01:04.255Z,78.75
2018-08-11T07:02:04.044Z,73.13
2018-08-11T07:03:04.071Z,73.13
2018-08-11T07:04:04.105Z,78.75
2018-08-11T07:05:04.142Z,95.63
2018-08-11T07:06:04.131Z,95.63
2018-08-11T07:07:04.234Z,90.00
2018-08-11T07:08:04.245Z,67.50
2018-08-11T07:09:04.270Z,56.25
2018-08-11T07:10:04.249Z,50.63
2018-08-11T07:11:04.288Z,56.25
2018-08-11T07:12:04.322Z,56.25
2018-08-11T07:13:04.404Z,50.63
2018-08-11T07:14:04.431Z,50.63
2018-08-11T07:15:04.432Z,50.63
2018-08-11T07:16:04.452Z,50.63
2018-08-11T07:17:04.491Z,50.63
2018-08-11T07:18:04.572Z,56.25
2018-08-11T07:19:04.552Z,56.25
2018-08-11T07:20:04.885Z,56.25
2018-08-11T07:21:04.669Z,61.88
2018-08-11T07:22:04.645Z,61.88
2018-08-11T07:23:04.726Z,56.25
2018-08-11T07:24:04.710Z,56.25
2018-08-11T07:25:04.797Z,56.25
2018-08-11T07:26:04.780Z,61.88
2018-08-11T07:28:05.147Z,78.75
2018-08-11T07:29:04.876Z,84.38
2018-08-11T07:30:04.932Z,84.38
2018-08-11T07:31:04.947Z,61.88
2018-08-11T07:32:05.032Z,61.88
2018-08-11T07:33:05.063Z,73.13
2018-08-11T07:34:05.093Z,56.25
2018-08-11T07:35:05.393Z,56.25
2018-08-11T07:36:05.162Z,50.63
2018-08-11T07:37:05.200Z,50.63
2018-08-11T07:38:05.174Z,61.88
2018-08-11T07:39:05.263Z,61.88
2018-08-11T07:40:05.242Z,61.88
2018-08-11T07:41:05.332Z,67.50
2018-08-11T07:42:05.605Z,78.75
2018-08-11T07:43:05.389Z,73.13
2018-08-11T07:44:05.427Z,67.50
2018-08-11T07:45:05.456Z,61.88
2018-08-11T07:46:05.434Z,61.88
2018-08-11T07:47:05.473Z,61.88
2018-08-11T07:48:05.554Z,73.13
2018-08-11T07:49:05.834Z,78.75
2018-08-11T07:50:05.570Z,73.13
2018-08-11T07:51:05.602Z,73.13
2018-08-11T07:52:05.637Z,73.13
2018-08-11T07:53:05.720Z,61.88
2018-08-11T07:54:05.753Z,67.50
2018-08-11T07:55:05.736Z,67.50
2018-08-11T07:56:06.200Z,73.13
2018-08-11T07:57:05.802Z,73.13
2018-08-11T07:58:05.885Z,73.13
2018-08-11T07:59:05.870Z,84.38
2018-08-11T08:00:05.897Z,90.00
2018-08-11T08:01:05.985Z,101.25
2018-08-11T08:02:05.970Z,90.00
2018-08-11T08:03:06.362Z,84.38
2018-08-11T08:04:06.036Z,84.38
2018-08-11T08:05:06.061Z,90.00
2018-08-11T08:06:06.143Z,90.00
2018-08-11T08:07:06.133Z,73.13
2018-08-11T08:08:06.207Z,61.88
2018-08-11T08:09:06.256Z,56.25
2018-08-11T08:10:06.280Z,50.63
2018-08-11T08:11:06.264Z,61.88
2018-08-11T08:12:06.293Z,61.88
2018-08-11T08:13:06.381Z,67.50
2018-08-11T08:14:06.410Z,84.38
2018-08-11T08:15:06.392Z,90.00
2018-08-11T08:16:06.429Z,84.38
2018-08-11T08:17:06.464Z,90.00
2018-08-11T08:18:06.544Z,84.38
2018-08-11T08:19:06.591Z,73.13
2018-08-11T08:20:06.563Z,61.88
2018-08-11T08:21:06.658Z,73.13
2018-08-11T08:22:06.629Z,78.75
2018-08-11T08:23:06.666Z,78.75
2018-08-11T08:24:06.741Z,73.13
2018-08-11T08:25:06.780Z,67.50
2018-08-11T08:26:06.814Z,56.25
2018-08-11T08:27:06.849Z,50.63
2018-08-11T08:28:06.836Z,56.25
2018-08-11T08:29:06.912Z,67.50
2018-08-11T08:30:06.947Z,73.13
2018-08-11T08:31:06.924Z,67.50
2018-08-11T08:32:06.962Z,67.50
2018-08-11T08:33:07.298Z,73.13
2018-08-11T08:34:07.080Z,73.13
2018-08-11T08:35:07.115Z,73.13
2018-08-11T08:36:07.090Z,67.50
2018-08-11T08:37:07.178Z,67.50
2018-08-11T08:38:07.169Z,67.50
2018-08-11T08:39:07.189Z,61.88
2018-08-11T08:40:07.281Z,61.88
2018-08-11T08:41:07.304Z,61.88
2018-08-11T08:42:07.292Z,56.25
2018-08-11T08:43:07.323Z,61.88
2018-08-11T08:44:07.403Z,56.25
2018-08-11T08:45:07.393Z,67.50
2018-08-11T08:46:07.725Z,67.50
2018-08-11T08:47:07.460Z,67.50
2018-08-11T08:48:07.500Z,67.50
2018-08-11T08:49:07.578Z,67.50
2018-08-11T08:50:07.606Z,73.13
2018-08-11T08:51:07.592Z,73.13
2018-08-11T08:52:07.974Z,78.75
2018-08-11T08:53:07.716Z,84.38
2018-08-11T08:54:07.693Z,95.63
2018-08-11T08:55:07.777Z,95.63
2018-08-11T08:56:07.757Z,90.00
2018-08-11T08:57:07.841Z,78.75
2018-08-11T08:58:07.875Z,73.13
2018-08-11T08:59:07.930Z,78.75
2018-08-11T09:00:07.887Z,78.75
2018-08-11T09:01:07.973Z,78.75
2018-08-11T09:02:07.953Z,84.38
2018-08-11T09:03:08.055Z,84.38
2018-08-11T09:04:08.321Z,84.38
2018-08-11T09:05:08.112Z,73.13
2018-08-11T09:06:08.093Z,61.88
2018-08-11T09:07:08.127Z,56.25
2018-08-11T09:08:08.221Z,56.25
2018-08-11T09:09:08.252Z,61.88
2018-08-11T09:10:08.221Z,61.88
2018-08-11T09:11:08.310Z,67.50
2018-08-11T09:12:08.290Z,61.88
2018-08-11T09:13:08.378Z,61.88
2018-08-11T09:14:08.403Z,61.88
2018-08-11T09:15:08.393Z,67.50
2018-08-11T09:16:08.421Z,67.50
2018-08-11T09:17:08.769Z,73.13
2018-08-11T09:19:08.582Z,78.75
2018-08-11T09:20:08.564Z,78.75
2018-08-11T09:21:08.656Z,84.38
2018-08-11T09:22:08.626Z,90.00
2018-08-11T09:23:08.654Z,78.75
2018-08-11T09:24:09.046Z,78.75
2018-08-11T09:25:08.770Z,84.38
2018-08-11T09:26:08.758Z,90.00
2018-08-11T09:27:08.798Z,90.00
2018-08-11T09:28:08.874Z,84.38
2018-08-11T09:29:08.970Z,90.00
2018-08-11T09:30:08.954Z,84.38
2018-08-11T09:31:08.923Z,84.38
2018-08-11T09:32:08.959Z,84.38
2018-08-11T09:33:09.038Z,95.63
2018-08-11T09:34:09.080Z,106.88
2018-08-11T09:35:09.056Z,112.50
2018-08-11T09:36:09.141Z,118.13
2018-08-11T09:37:09.427Z,106.88
2018-08-11T09:38:09.210Z,90.00
2018-08-11T09:39:09.242Z,84.38
2018-08-11T09:40:09.226Z,84.38
2018-08-11T09:41:09.306Z,78.75
2018-08-11T09:42:09.294Z,78.75
2018-08-11T09:44:09.415Z,67.50
2018-08-11T09:45:09.447Z,73.13
2018-08-11T09:46:09.465Z,84.38
2018-08-11T09:47:09.460Z,95.63
2018-08-11T09:48:09.494Z,112.50
2018-08-11T09:49:09.875Z,106.88
2018-08-11T09:50:09.626Z,101.25
2018-08-11T09:51:09.602Z,101.25
2018-08-11T09:52:09.663Z,106.88
2018-08-11T09:53:09.667Z,106.88
2018-08-11T09:54:09.746Z,101.25
2018-08-11T09:55:10.025Z,106.88
2018-08-11T09:56:09.758Z,112.50
2018-08-11T09:57:09.861Z,106.88
2018-08-11T09:58:09.829Z,118.13
2018-08-11T09:59:10.014Z,129.38
2018-08-11T10:00:09.893Z,129.38
2018-08-11T10:01:09.984Z,123.75
2018-08-11T10:02:10.271Z,112.50
2018-08-11T10:03:09.997Z,106.88
2018-08-11T10:04:10.090Z,95.63
2018-08-11T10:05:10.173Z,95.63
2018-08-11T10:06:10.157Z,90.00
2018-08-11T10:07:10.137Z,90.00
2018-08-11T10:08:10.219Z,90.00
2018-08-11T10:09:10.506Z,84.38
2018-08-11T10:10:10.285Z,78.75
2018-08-11T10:11:10.319Z,73.13
2018-08-11T10:12:10.303Z,78.75
2018-08-11T10:13:10.366Z,90.00
2018-08-11T10:14:10.514Z,90.00
2018-08-11T10:15:10.450Z,90.00
2018-08-11T10:16:10.809Z,95.63
2018-08-11T10:17:10.537Z,95.63
2018-08-11T10:18:10.516Z,90.00
2018-08-11T10:19:10.549Z,90.00
2018-08-11T10:20:10.631Z,101.25
2018-08-11T10:21:10.609Z,112.50
2018-08-11T10:22:10.691Z,129.38
2018-08-11T10:23:10.733Z,146.25
2018-08-11T10:24:10.707Z,140.63
2018-08-11T10:25:10.842Z,129.38
2018-08-11T10:26:10.884Z,118.13
2018-08-11T10:27:10.817Z,106.88
2018-08-11T10:28:10.845Z,101.25
2018-08-11T10:29:11.183Z,90.00
2018-08-11T10:30:10.984Z,84.38
2018-08-11T10:31:10.989Z,78.75
2018-08-11T10:32:10.987Z,90.00
2018-08-11T10:33:11.086Z,90.00
2018-08-11T10:34:11.056Z,90.00
2018-08-11T10:36:11.183Z,90.00
2018-08-11T10:37:11.457Z,90.00
2018-08-11T10:38:11.241Z,84.38
2018-08-11T10:39:11.271Z,78.75
2018-08-11T10:40:11.455Z,78.75
2018-08-11T10:41:11.337Z,78.75
2018-08-11T10:42:11.379Z,78.75
2018-08-11T10:43:11.356Z,84.38
2018-08-11T10:44:11.738Z,90.00
2018-08-11T10:45:11.519Z,95.63
2018-08-11T10:46:11.457Z,101.25
2018-08-11T10:47:11.610Z,101.25
2018-08-11T10:48:11.524Z,106.88
2018-08-11T10:49:11.565Z,112.50
2018-08-11T10:50:11.604Z,118.13
2018-08-11T10:51:11.927Z,123.75
2018-08-11T10:52:11.710Z,123.75
2018-08-11T10:53:11.741Z,123.75
2018-08-11T10:54:11.777Z,123.75
2018-08-11T10:55:11.803Z,123.75
2018-08-11T10:56:11.802Z,129.38
2018-08-11T10:57:11.879Z,123.75
2018-08-11T10:58:12.171Z,123.75
2018-08-11T10:59:11.894Z,123.75
2018-08-11T11:00:11.934Z,112.50
2018-08-11T11:01:12.022Z,101.25
2018-08-11T11:02:12.046Z,95.63
2018-08-11T11:03:12.081Z,95.63
2018-08-11T11:04:12.070Z,90.00
2018-08-11T11:05:12.405Z,95.63
2018-08-11T11:06:12.137Z,95.63
2018-08-11T11:07:12.525Z,106.88
2018-08-11T11:08:12.264Z,118.13
2018-08-11T11:09:12.297Z,123.75
2018-08-11T11:10:12.276Z,123.75
2018-08-11T11:11:12.605Z,123.75
2018-08-11T11:12:12.396Z,118.13
2018-08-11T11:13:12.479Z,106.88
2018-08-11T11:14:12.477Z,101.25
2018-08-11T11:15:12.447Z,106.88
2018-08-11T11:16:12.482Z,112.50
2018-08-11T11:17:12.865Z,123.75
2018-08-11T11:18:12.597Z,123.75
2018-08-11T11:19:12.578Z,118.13
2018-08-11T11:20:12.616Z,106.88
2018-08-11T11:21:12.703Z,101.25
2018-08-11T11:22:12.736Z,101.25
2018-08-11T11:23:13.014Z,95.63
2018-08-11T11:24:12.819Z,95.63
2018-08-11T11:25:12.787Z,101.25
2018-08-11T11:26:13.182Z,95.63
2018-08-11T11:27:12.910Z,95.63
2018-08-11T11:28:12.941Z,95.63
2018-08-11T11:29:12.971Z,101.25
2018-08-11T11:30:13.255Z,106.88
2018-08-11T11:31:12.990Z,112.50
2018-08-11T11:32:13.081Z,123.75
2018-08-11T11:33:13.115Z,123.75
2018-08-11T11:34:13.147Z,123.75
2018-08-11T11:35:13.126Z,118.13
2018-08-11T11:36:13.170Z,112.50
2018-08-11T11:37:13.505Z,118.13
2018-08-11T11:38:13.232Z,123.75
2018-08-11T11:39:13.322Z,129.38
2018-08-11T11:40:13.301Z,129.38
2018-08-11T11:41:13.380Z,135.00
2018-08-11T11:42:13.371Z,140.63
2018-08-11T11:43:13.434Z,135.00
2018-08-11T11:44:13.736Z,140.63
2018-08-11T11:45:13.533Z,146.25
2018-08-11T11:46:13.604Z,151.88
2018-08-11T11:47:13.588Z,146.25
2018-08-11T11:48:13.574Z,129.38
2018-08-11T11:49:13.664Z,118.13
2018-08-11T11:50:13.652Z,112.50
2018-08-11T11:51:13.986Z,112.50
2018-08-11T11:52:13.716Z,106.88
2018-08-11T11:53:13.806Z,106.88
2018-08-11T11:54:13.837Z,112.50
2018-08-11T11:55:13.813Z,118.13
2018-08-11T11:56:13.852Z,123.75
2018-08-11T11:57:13.941Z,123.75
2018-08-11T11:58:14.272Z,123.75
2018-08-11T11:59:13.958Z,129.38
2018-08-11T12:00:13.988Z,135.00
2018-08-11T12:01:14.081Z,146.25
2018-08-11T12:02:14.052Z,163.13
2018-08-11T12:03:14.167Z,163.13
2018-08-11T12:04:14.154Z,168.75
2018-08-11T12:05:14.470Z,163.13
2018-08-11T12:06:14.292Z,157.50
2018-08-11T12:07:15.126Z,140.63
2018-08-11T12:08:14.320Z,129.38
2018-08-11T12:09:14.366Z,118.13
2018-08-11T12:10:14.382Z,112.50
2018-08-11T12:11:14.418Z,112.50
2018-08-11T12:12:14.705Z,118.13
2018-08-11T12:13:14.435Z,118.13
2018-08-11T12:14:14.530Z,123.75
2018-08-11T12:15:14.509Z,123.75
2018-08-11T12:16:14.547Z,123.75
2018-08-11T12:17:14.617Z,118.13
2018-08-11T12:18:14.622Z,129.38
2018-08-11T12:19:14.947Z,140.63
2018-08-11T12:20:14.678Z,151.88
2018-08-11T12:21:14.774Z,163.13
2018-08-11T12:22:14.745Z,168.75
2018-08-11T12:23:14.830Z,168.75
2018-08-11T12:24:14.819Z,163.13
2018-08-11T12:25:14.904Z,157.50
2018-08-11T12:26:14.935Z,146.25
2018-08-11T12:27:14.979Z,146.25
2018-08-11T12:28:15.017Z,140.63
2018-08-11T12:29:15.042Z,140.63
2018-08-11T12:30:15.074Z,146.25
2018-08-11T12:31:15.080Z,163.13
2018-08-11T12:32:15.096Z,168.75
2018-08-11T12:33:15.126Z,174.38
2018-08-11T12:34:15.216Z,168.75
2018-08-11T12:35:15.201Z,163.13
2018-08-11T12:36:15.275Z,157.50
2018-08-11T12:37:15.316Z,151.88
2018-08-11T12:38:15.597Z,157.50
2018-08-11T12:39:15.329Z,157.50
2018-08-11T12:40:15.372Z,151.88
2018-08-11T12:41:15.448Z,146.25
2018-08-11T12:42:15.481Z,140.63
2018-08-11T12:43:15.470Z,123.75
2018-08-11T12:44:15.801Z,112.50
2018-08-11T12:45:15.535Z,112.50
2018-08-11T12:46:15.727Z,112.50
2018-08-11T12:47:15.608Z,118.13
2018-08-11T12:48:15.643Z,118.13
2018-08-11T12:49:15.726Z,118.13
2018-08-11T12:50:16.015Z,123.75
2018-08-11T12:51:15.799Z,123.75
2018-08-11T12:52:15.781Z,129.38
2018-08-11T12:53:15.861Z,146.25
2018-08-11T12:54:15.848Z,157.50
2018-08-11T12:55:15.935Z,157.50
2018-08-11T12:56:15.972Z,151.88
2018-08-11T12:58:15.987Z,146.25
2018-08-11T12:59:16.025Z,146.25
2018-08-11T13:00:16.061Z,151.88
2018-08-11T13:01:16.144Z,163.13
2018-08-11T13:02:16.182Z,168.75
2018-08-11T13:03:16.462Z,180.00